Time;durP1;ratioP1;P1;durP2;ratioP2;P2;SDS_P1;SDS_P2;PMS_P1;PMS_P2;Temp;Humidity;BMP_temperature;BMP_pressure;BME280_temperature;BME280_humidity;BME280_pressure;Samples;Min_cycle;Max_cycle;Signal;HPM_P1;HPM_P2
2024/03/21 00:01:39;;;;;;;12.98;8.35;;;;;;;5.69;100.00;101257.53;4837507;29;20048;-96
2024/03/21 00:05:03;;;;;;;13.27;7.78;;;;;;;5.62;100.00;101254.44;4823340;29;20199;-96
2024/03/21 00:08:00;;;;;;;11.80;8.07;;;;;;;5.66;100.00;101255.94;4805751;29;20117;-95
2024/03/21 00:11:32;;;;;;;13.70;8.93;;;;;;;5.58;100.00;101245.91;4820950;29;20048;-95
2024/03/21 00:14:08;;;;;;;11.18;7.95;;;;;;;5.54;100.00;101243.56;4820646;29;20112;-96
2024/03/21 00:16:46;;;;;;;11.00;7.75;;;;;;;5.64;100.00;101255.19;4795342;29;20562;-96
2024/03/21 00:19:35;;;;;;;13.48;8.48;;;;;;;5.68;100.00;101250.59;4846689;29;20038;-95
2024/03/21 00:22:19;;;;;;;12.82;7.82;;;;;;;5.66;100.00;101236.72;4801776;29;20081;-96
2024/03/21 00:24:53;;;;;;;12.55;8.13;;;;;;;5.62;100.00;101235.22;4813244;29;20065;-93
2024/03/21 00:27:45;;;;;;;10.80;7.82;;;;;;;5.69;100.00;101234.78;4809037;29;20053;-93
2024/03/21 00:30:17;;;;;;;10.00;7.75;;;;;;;5.63;100.00;101224.66;4822662;29;20049;-96
2024/03/21 00:33:05;;;;;;;13.85;8.38;;;;;;;5.65;100.00;101212.28;4816710;29;20085;-96
2024/03/21 00:35:34;;;;;;;13.23;7.90;;;;;;;5.63;100.00;101210.69;4802199;29;20136;-95
2024/03/21 00:38:21;;;;;;;9.18;7.10;;;;;;;5.65;100.00;101201.81;4794499;29;20041;-96
2024/03/21 00:40:50;;;;;;;9.93;7.10;;;;;;;5.61;100.00;101208.16;4812443;29;20057;-95
2024/03/21 00:44:07;;;;;;;11.48;7.47;;;;;;;5.69;100.00;101212.94;4820629;29;20519;-95
2024/03/21 00:46:47;;;;;;;9.57;6.75;;;;;;;5.59;100.00;101213.50;4811622;29;20049;-96
2024/03/21 00:49:23;;;;;;;10.63;6.53;;;;;;;5.61;100.00;101220.41;4810898;29;20042;-96
2024/03/21 00:52:23;;;;;;;;;;;;;;;;;;;;;
2024/03/21 00:59:09;;;;;;;8.18;5.50;;;;;;;5.51;100.00;101215.72;4775199;29;20054;-96
2024/03/21 01:02:07;;;;;;;9.48;5.57;;;;;;;5.45;100.00;101208.22;4810527;29;20046;-96
2024/03/21 01:05:13;;;;;;;14.00;6.25;;;;;;;5.58;100.00;101227.56;4807332;29;20572;-95
2024/03/21 01:07:50;;;;;;;8.75;6.20;;;;;;;5.49;100.00;101217.63;4810966;29;20053;-96
2024/03/21 01:10:32;;;;;;;10.73;6.03;;;;;;;5.52;100.00;101214.81;4821602;29;20044;-95
2024/03/21 01:13:00;;;;;;;9.20;6.13;;;;;;;5.50;100.00;101218.44;4804307;29;20038;-95
2024/03/21 01:15:43;;;;;;;8.60;5.57;;;;;;;5.52;100.00;101217.44;4806109;29;20477;-95
2024/03/21 01:18:18;;;;;;;10.75;5.82;;;;;;;5.51;100.00;101213.09;4796771;29;20045;-94
2024/03/21 01:24:55;;;;;;;6.35;5.10;;;;;;;5.53;100.00;101211.25;4833763;29;20072;-95
2024/03/21 01:27:29;;;;;;;10.10;5.47;;;;;;;5.45;100.00;101201.22;4831449;29;20056;-95
2024/03/21 01:30:11;;;;;;;;;;;;;;;;;;;;;
2024/03/21 01:33:08;;;;;;;8.85;5.60;;;;;;;5.49;100.00;101204.50;4813129;29;20037;-95
2024/03/21 01:35:56;;;;;;;10.63;5.53;;;;;;;5.51;100.00;101194.75;4800293;29;20030;-96
2024/03/21 01:38:49;;;;;;;10.60;5.25;;;;;;;5.58;100.00;101197.84;4803072;29;20048;-95
2024/03/21 01:41:20;;;;;;;12.70;5.70;;;;;;;5.60;100.00;101206.47;4797586;29;20046;-96
2024/03/21 01:52:24;;;;;;;9.95;4.95;;;;;;;5.67;100.00;101180.72;4799798;29;20099;-95
2024/03/21 01:55:25;;;;;;;;;;;;;;;;;;;;;
2024/03/21 01:58:49;;;;;;;12.90;6.00;;;;;;;5.87;100.00;101186.50;4790459;29;20050;-95
2024/03/21 02:01:49;;;;;;;8.93;5.53;;;;;;;5.89;100.00;101177.59;4790813;29;20112;-96
2024/03/21 02:05:07;;;;;;;9.82;6.03;;;;;;;5.94;100.00;101182.59;4789703;29;20042;-94
2024/03/21 02:09:10;;;;;;;11.20;5.65;;;;;;;5.97;100.00;101177.16;4754306;29;20048;-95
2024/03/21 02:15:40;;;;;;;10.70;6.00;;;;;;;5.99;100.00;101167.38;4751133;29;20046;-95
2024/03/21 02:26:15;;;;;;;13.77;7.88;;;;;;;6.09;100.00;101167.66;4797272;29;20107;-95
2024/03/21 02:29:23;;;;;;;10.23;7.40;;;;;;;6.10;100.00;101166.72;4796062;29;20038;-95
2024/03/21 02:32:04;;;;;;;11.35;7.93;;;;;;;6.07;100.00;101164.28;4781257;29;20031;-95
2024/03/21 02:34:51;;;;;;;11.75;6.75;;;;;;;6.14;100.00;101155.09;4785006;29;20046;-94
2024/03/21 02:38:33;;;;;;;11.23;7.68;;;;;;;6.19;100.00;101152.19;4807301;29;20034;-95
2024/03/21 02:42:24;;;;;;;;;;;;;;;;;;;;;
2024/03/21 02:45:40;;;;;;;10.65;8.38;;;;;;;6.18;100.00;101153.97;4796594;29;20061;-95
2024/03/21 02:48:15;;;;;;;15.63;9.13;;;;;;;6.20;100.00;101153.88;4801738;29;20042;-95
2024/03/21 02:51:15;;;;;;;13.63;9.38;;;;;;;6.20;100.00;101153.88;4806170;29;20046;-95
2024/03/21 02:54:11;;;;;;;11.48;8.70;;;;;;;6.19;100.00;101152.19;4811692;29;20511;-94
2024/03/21 02:56:45;;;;;;;14.65;9.00;;;;;;;6.16;100.00;101149.75;4780132;29;20092;-95
2024/03/21 02:59:16;;;;;;;14.77;9.50;;;;;;;6.16;100.00;101153.22;4793106;29;20060;-94
2024/03/21 03:01:53;;;;;;;16.10;9.50;;;;;;;6.22;100.00;101151.13;4807729;29;20035;-95
2024/03/21 03:04:38;;;;;;;12.00;9.98;;;;;;;6.22;100.00;101153.75;4803057;29;20182;-95
2024/03/21 03:07:43;;;;;;;16.75;10.43;;;;;;;6.26;100.00;101168.41;4799983;29;20449;-95
2024/03/21 03:10:17;;;;;;;17.35;9.95;;;;;;;6.22;100.00;101156.38;4809618;29;20046;-90
2024/03/21 03:12:43;;;;;;;13.98;9.23;;;;;;;6.21;100.00;101160.81;4776048;29;21095;-91
2024/03/21 03:15:11;;;;;;;16.13;10.07;;;;;;;6.25;100.00;101156.19;4796097;29;20078;-95
2024/03/21 03:17:37;;;;;;;15.00;9.45;;;;;;;6.20;100.00;101146.00;4793432;29;20038;-95
2024/03/21 03:20:22;;;;;;;15.63;9.98;;;;;;;6.23;100.00;101145.78;4818364;29;20039;-95
2024/03/21 03:22:53;;;;;;;14.20;8.85;;;;;;;6.25;100.00;101141.28;4771010;29;20154;-95
2024/03/21 03:25:34;;;;;;;14.55;9.75;;;;;;;6.25;100.00;101136.03;4781379;29;20046;-95
2024/03/21 03:40:45;;;;;;;14.43;10.32;;;;;;;6.28;100.00;101133.22;4700529;30;20526;-95
2024/03/21 03:43:25;;;;;;;13.75;9.63;;;;;;;6.37;100.00;101142.28;4733838;29;20057;-94
2024/03/21 03:45:58;;;;;;;14.75;9.88;;;;;;;6.36;100.00;101132.72;4791751;29;20042;-95
2024/03/21 03:52:30;;;;;;;14.60;9.73;;;;;;;6.48;100.00;101107.47;4811507;29;20045;-95
2024/03/21 03:55:51;;;;;;;12.90;9.15;;;;;;;6.49;100.00;101109.13;4804660;29;20049;-94
2024/03/21 03:58:26;;;;;;;14.18;10.23;;;;;;;6.53;100.00;101107.97;4791647;29;20050;-94
2024/03/21 04:01:13;;;;;;;14.48;10.00;;;;;;;6.59;100.00;101109.38;4810323;29;20123;-95
2024/03/21 04:03:47;;;;;;;15.73;10.02;;;;;;;6.62;100.00;101101.28;4793536;29;20035;-94
2024/03/21 04:06:22;;;;;;;15.77;10.30;;;;;;;6.70;100.00;101103.41;4778089;29;20141;-95
2024/03/21 04:09:01;;;;;;;16.35;9.80;;;;;;;6.71;100.00;101089.31;4782636;29;20031;-95
2024/03/21 04:11:33;;;;;;;19.15;9.52;;;;;;;6.70;100.00;101077.13;4799941;29;20050;-95
2024/03/21 04:14:06;;;;;;;20.88;11.10;;;;;;;6.75;100.00;101063.69;4790779;29;20045;-95
2024/03/21 04:16:35;;;;;;;16.35;9.73;;;;;;;6.80;100.00;101067.66;4784056;29;20129;-95
2024/03/21 04:19:02;;;;;;;13.60;9.48;;;;;;;6.87;100.00;101075.13;4790960;29;20045;-95
2024/03/21 04:21:47;;;;;;;13.43;9.60;;;;;;;6.82;100.00;101067.56;4792092;29;20042;-95
2024/03/21 04:24:22;;;;;;;15.57;9.52;;;;;;;6.81;100.00;101048.34;4766035;29;20065;-94
2024/03/21 04:27:05;;;;;;;15.70;9.60;;;;;;;6.83;100.00;101049.06;4771508;29;20053;-95
2024/03/21 04:29:46;;;;;;;17.20;10.07;;;;;;;6.79;100.00;101036.25;4799423;29;20051;-95
2024/03/21 04:32:58;;;;;;;16.50;8.95;;;;;;;6.79;100.00;101026.56;4791892;29;20039;-95
2024/03/21 04:36:09;;;;;;;12.63;8.23;;;;;;;6.82;100.00;101029.00;4793626;29;20061;-95
2024/03/21 04:38:38;;;;;;;10.95;7.82;;;;;;;6.72;100.00;101016.59;4782499;29;20077;-95
2024/03/21 04:49:35;;;;;;;14.30;8.20;;;;;;;6.76;100.00;100999.66;4756218;30;20048;-96
2024/03/21 04:53:31;;;;;;;14.68;8.05;;;;;;;6.79;100.00;100995.03;4731603;29;20130;-95
2024/03/21 04:56:11;;;;;;;11.55;7.88;;;;;;;6.73;100.00;100992.84;4796149;29;20042;-95
2024/03/21 04:59:28;;;;;;;;;;;;;;;;;;;;;
2024/03/21 05:05:53;;;;;;;20.13;7.93;;;;;;;6.85;100.00;100990.31;4825812;29;20547;-95
2024/03/21 05:08:31;;;;;;;12.68;8.07;;;;;;;6.81;100.00;100992.31;4813166;29;20057;-95
2024/03/21 05:11:17;;;;;;;13.07;7.70;;;;;;;6.86;100.00;101000.72;4809758;29;20463;-95
2024/03/21 05:14:04;;;;;;;20.40;8.20;;;;;;;6.82;100.00;100996.63;4786000;29;20054;-94
2024/03/21 05:16:48;;;;;;;11.88;7.55;;;;;;;6.87;100.00;100996.28;4789252;29;20080;-96
2024/03/21 05:19:34;;;;;;;10.48;7.40;;;;;;;6.84;100.00;101013.13;4794621;29;20119;-94
2024/03/21 05:22:11;;;;;;;16.70;8.30;;;;;;;6.89;100.00;101021.53;4807830;29;20058;-95
2024/03/21 05:24:42;;;;;;;16.13;7.70;;;;;;;6.91;100.00;101022.25;4781069;29;20500;-95
2024/03/21 05:27:19;;;;;;;14.07;7.65;;;;;;;6.90;100.00;101023.22;4780778;29;20102;-95
2024/03/21 05:29:57;;;;;;;12.82;7.03;;;;;;;6.95;100.00;101030.78;4820271;29;20103;-95
2024/03/21 05:33:13;;;;;;;14.98;7.65;;;;;;;7.00;100.00;101040.97;4795489;29;20050;-95
2024/03/21 05:35:42;;;;;;;11.90;6.03;;;;;;;6.93;100.00;101041.41;4790128;29;20109;-95
2024/03/21 05:38:13;;;;;;;13.07;7.53;;;;;;;6.93;100.00;101057.16;4805623;29;20054;-95
2024/03/21 05:40:57;;;;;;;13.35;7.05;;;;;;;6.95;100.00;101060.53;4798400;29;20111;-94
2024/03/21 05:43:32;;;;;;;11.88;7.32;;;;;;;7.00;100.00;101064.63;4777292;29;20073;-95
2024/03/21 05:45:59;;;;;;;14.77;6.53;;;;;;;6.99;100.00;101055.88;4794334;29;20039;-96
2024/03/21 05:48:27;;;;;;;14.93;7.30;;;;;;;7.00;100.00;101044.44;4791490;29;20141;-96
2024/03/21 05:51:07;;;;;;;13.70;6.72;;;;;;;7.13;100.00;101064.63;4808861;29;20070;-95
2024/03/21 05:53:36;;;;;;;14.38;7.30;;;;;;;7.07;100.00;101050.13;4801844;29;20050;-94
2024/03/21 05:56:25;;;;;;;15.25;6.82;;;;;;;7.12;100.00;101034.84;4797185;29;20486;-95
2024/03/21 05:58:57;;;;;;;11.63;6.55;;;;;;;7.11;100.00;101046.31;4808436;29;20053;-95
2024/03/21 06:01:33;;;;;;;15.88;7.35;;;;;;;7.15;100.00;101057.47;4794049;29;20050;-95
2024/03/21 06:04:02;;;;;;;17.90;7.00;;;;;;;7.19;100.00;101064.19;4839677;29;20048;-94
2024/03/21 06:06:28;;;;;;;11.98;7.03;;;;;;;7.24;100.00;101069.13;4812567;29;20034;-93
2024/03/21 06:08:57;;;;;;;12.73;6.93;;;;;;;7.19;100.00;101070.31;4802115;29;20045;-94
2024/03/21 06:11:23;;;;;;;12.98;7.05;;;;;;;7.22;100.00;101084.16;4827744;29;20038;-93
2024/03/21 06:13:52;;;;;;;14.85;6.88;;;;;;;7.18;100.00;101068.59;4839720;29;20042;-93
2024/03/21 06:16:18;;;;;;;11.02;6.53;;;;;;;7.13;100.00;101041.81;4827986;29;20029;-93
2024/03/21 06:18:44;;;;;;;10.52;6.38;;;;;;;7.13;100.00;101046.22;4797708;29;20046;-93
2024/03/21 06:21:10;;;;;;;11.70;6.20;;;;;;;7.14;100.00;101059.25;4813133;29;20030;-92
2024/03/21 06:23:36;;;;;;;14.45;6.40;;;;;;;7.12;100.00;101045.38;4811470;29;20657;-94
2024/03/21 06:26:14;;;;;;;11.57;5.80;;;;;;;7.05;100.00;101026.56;4827488;29;20133;-92
2024/03/21 06:28:40;;;;;;;10.77;5.55;;;;;;;7.02;100.00;101037.31;4797687;29;20133;-93
2024/03/21 06:31:09;;;;;;;7.72;5.35;;;;;;;6.99;100.00;101047.19;4813225;29;20046;-94
2024/03/21 06:33:38;;;;;;;14.65;5.65;;;;;;;6.98;100.00;101034.97;4818358;29;20045;-94
2024/03/21 06:36:04;;;;;;;10.57;4.85;;;;;;;6.94;100.00;101034.34;4827435;29;20038;-94
2024/03/21 06:38:30;;;;;;;10.38;5.15;;;;;;;6.95;100.00;101041.28;4812096;29;20070;-94
2024/03/21 06:40:56;;;;;;;10.45;5.30;;;;;;;6.94;100.00;101029.94;4806848;29;20137;-95
2024/03/21 06:43:25;;;;;;;9.65;5.35;;;;;;;6.98;100.00;101029.72;4826581;29;20109;-93
2024/03/21 06:45:55;;;;;;;8.15;4.65;;;;;;;6.98;100.00;101019.19;4797338;29;20042;-94
2024/03/21 06:48:22;;;;;;;11.18;4.65;;;;;;;6.98;100.00;101034.97;4837763;29;20046;-93
2024/03/21 06:50:49;;;;;;;10.32;4.85;;;;;;;6.95;100.00;101030.78;4808427;29;20068;-93
2024/03/21 06:53:18;;;;;;;10.55;5.43;;;;;;;7.03;100.00;101036.34;4812065;29;20054;-93
2024/03/21 06:55:52;;;;;;;8.25;4.20;;;;;;;7.04;100.00;101029.31;4819196;29;20042;-93
2024/03/21 06:58:19;;;;;;;6.97;4.53;;;;;;;7.05;100.00;101020.47;4812226;29;20485;-94
2024/03/21 07:00:46;;;;;;;7.05;4.25;;;;;;;7.06;100.00;101019.50;4797620;29;20042;-94
2024/03/21 07:03:14;;;;;;;13.07;4.75;;;;;;;7.07;100.00;101023.84;4825526;29;20045;-94
2024/03/21 07:05:41;;;;;;;10.35;4.25;;;;;;;7.09;100.00;101021.94;4815338;29;20057;-93
2024/03/21 07:08:07;;;;;;;10.02;4.68;;;;;;;7.09;100.00;101019.28;4797197;29;20033;-93
2024/03/21 07:10:35;;;;;;;11.70;4.55;;;;;;;7.10;100.00;101018.38;4815646;29;20037;-94
2024/03/21 07:13:01;;;;;;;6.28;3.90;;;;;;;7.18;100.00;101025.72;4798199;29;20034;-94
2024/03/21 07:15:27;;;;;;;8.10;4.72;;;;;;;7.20;100.00;101018.53;4810652;29;20564;-92
2024/03/21 07:17:59;;;;;;;8.27;3.50;;;;;;;7.19;100.00;101019.50;4818525;29;20049;-94
2024/03/21 07:20:25;;;;;;;6.60;3.58;;;;;;;7.17;100.00;101027.50;4826529;29;20042;-93
2024/03/21 07:22:51;;;;;;;5.68;3.50;;;;;;;7.11;100.00;101014.78;4797735;29;20485;-94
2024/03/21 07:25:23;;;;;;;5.30;3.60;;;;;;;7.09;100.00;101006.16;4799540;29;20063;-92
2024/03/21 07:27:54;;;;;;;7.43;3.03;;;;;;;7.10;100.00;101015.75;4810556;29;20042;-93
2024/03/21 07:30:33;;;;;;;9.23;3.53;;;;;;;7.06;100.00;101015.09;4827734;29;20066;-94
2024/03/21 07:33:04;;;;;;;7.10;3.22;;;;;;;7.02;100.00;101021.53;4807368;29;20047;-92
2024/03/21 07:35:37;;;;;;;7.28;2.78;;;;;;;7.01;100.00;101004.06;4822201;29;20046;-94
2024/03/21 07:38:08;;;;;;;6.45;2.50;;;;;;;7.00;100.00;101005.03;4803317;29;20046;-92
2024/03/21 07:41:06;;;;;;;6.30;2.40;;;;;;;7.12;100.00;101016.44;4809472;29;20046;-94
2024/03/21 07:43:56;;;;;;;6.82;2.33;;;;;;;7.17;100.00;101018.75;4819921;29;20509;-93
2024/03/21 07:46:23;;;;;;;4.55;2.05;;;;;;;7.17;100.00;101019.59;4786769;29;20489;-93
2024/03/21 07:48:49;;;;;;;3.63;1.85;;;;;;;7.18;100.00;101023.09;4810321;29;20045;-93
2024/03/21 07:52:22;;;;;;;5.82;2.15;;;;;;;7.24;100.00;101014.75;4791649;29;20098;-93
2024/03/21 07:55:02;;;;;;;8.10;1.83;;;;;;;7.22;100.00;101014.03;4788145;29;20077;-92
2024/03/21 07:57:36;;;;;;;2.05;1.30;;;;;;;7.34;100.00;101017.59;4793621;29;20041;-93
2024/03/21 08:00:05;;;;;;;5.72;1.95;;;;;;;7.35;100.00;101011.38;4817731;29;20087;-94
2024/03/21 08:03:06;;;;;;;6.35;1.55;;;;;;;7.42;100.00;101017.03;4808676;29;20046;-94
2024/03/21 08:05:46;;;;;;;3.17;1.52;;;;;;;7.41;100.00;101013.56;4814478;29;20038;-93
2024/03/21 08:08:20;;;;;;;2.78;1.35;;;;;;;7.44;100.00;101005.44;4829189;29;20054;-92
2024/03/21 08:10:46;;;;;;;8.65;1.40;;;;;;;7.41;100.00;100999.56;4809041;29;20038;-93
2024/03/21 08:13:26;;;;;;;5.40;1.23;;;;;;;7.39;100.00;100997.03;4796509;29;20046;-93
2024/03/21 08:15:58;;;;;;;8.75;1.20;;;;;;;7.48;100.00;100998.19;4792213;29;20035;-95
2024/03/21 08:18:39;;;;;;;3.90;1.10;;;;;;;7.47;100.00;100995.66;4809117;29;20485;-95
2024/03/21 08:21:14;;;;;;;2.55;1.70;;;;;;;7.49;100.00;100985.84;4795507;29;20041;-93
2024/03/21 08:23:43;;;;;;;5.93;1.00;;;;;;;7.54;100.00;100984.59;4827186;29;20132;-94
2024/03/21 08:26:14;;;;;;;4.70;1.20;;;;;;;7.54;100.00;100983.75;4795123;29;20046;-94
2024/03/21 08:29:18;;;;;;;;;;;;;;;;;;;;;
2024/03/21 08:32:20;;;;;;;2.70;1.25;;;;;;;7.62;100.00;100976.13;4812376;29;20061;-94
2024/03/21 08:35:12;;;;;;;4.60;1.13;;;;;;;7.63;100.00;100979.63;4813259;29;20543;-93
2024/03/21 08:37:48;;;;;;;3.20;0.85;;;;;;;7.70;100.00;100980.84;4792139;29;20042;-94
2024/03/21 08:40:21;;;;;;;6.70;1.13;;;;;;;7.68;100.00;100973.06;4825940;29;20106;-94
2024/03/21 08:42:47;;;;;;;4.35;1.00;;;;;;;7.67;100.00;100971.38;4822858;29;20046;-93
2024/03/21 08:45:40;;;;;;;3.72;1.38;;;;;;;7.72;100.00;100967.56;4819289;29;20057;-95
2024/03/21 08:48:52;;;;;;;5.53;1.25;;;;;;;7.78;100.00;100965.34;4814146;29;20045;-94
2024/03/21 08:51:41;;;;;;;5.28;1.23;;;;;;;7.81;100.00;100964.25;4819045;29;20038;-93
2024/03/21 08:54:08;;;;;;;2.90;0.95;;;;;;;7.86;100.00;100956.88;4796982;29;20085;-94
2024/03/21 08:56:34;;;;;;;5.03;0.90;;;;;;;7.98;100.00;100962.19;4813405;29;20038;-94
2024/03/21 08:59:01;;;;;;;2.33;1.30;;;;;;;8.03;100.00;100963.50;4828886;29;20120;-94
2024/03/21 09:01:28;;;;;;;4.13;1.15;;;;;;;8.10;100.00;100974.41;4809694;29;20033;-93
2024/03/21 09:03:57;;;;;;;3.67;0.95;;;;;;;8.18;100.00;100981.75;4825118;29;20128;-94
2024/03/21 09:06:23;;;;;;;3.35;1.00;;;;;;;8.19;100.00;100962.34;4827321;29;20076;-92
2024/03/21 09:08:51;;;;;;;2.20;0.75;;;;;;;8.24;100.00;100973.38;4799535;29;20033;-93
2024/03/21 09:11:21;;;;;;;4.00;0.90;;;;;;;8.25;100.00;100972.41;4827748;29;20068;-94
2024/03/21 09:13:50;;;;;;;4.28;1.00;;;;;;;8.28;100.00;100971.38;4818312;29;20129;-93
2024/03/21 09:16:19;;;;;;;3.47;0.88;;;;;;;8.32;100.00;100973.66;4818181;29;20038;-93
2024/03/21 09:18:45;;;;;;;3.60;0.80;;;;;;;8.38;100.00;100955.69;4812566;29;20454;-93
2024/03/21 09:21:12;;;;;;;5.13;0.90;;;;;;;8.36;100.00;100954.97;4827198;29;20084;-93
2024/03/21 09:23:39;;;;;;;2.95;0.80;;;;;;;8.49;100.00;100965.41;4827360;29;20052;-94
2024/03/21 09:26:05;;;;;;;7.80;1.60;;;;;;;8.51;100.00;100959.06;4798120;29;20038;-93
2024/03/21 09:28:32;;;;;;;4.63;1.15;;;;;;;8.54;100.00;100963.25;4826712;29;20481;-93
2024/03/21 09:30:58;;;;;;;6.07;1.95;;;;;;;8.61;100.00;100961.88;4812613;29;20038;-93
2024/03/21 09:33:27;;;;;;;13.02;3.08;;;;;;;8.69;100.00;100966.53;4815527;29;20238;-93
2024/03/21 09:36:00;;;;;;;3.65;1.30;;;;;;;8.74;100.00;100967.03;4812768;29;20035;-93
2024/03/21 09:38:42;;;;;;;4.32;0.88;;;;;;;8.80;100.00;100963.06;4797456;29;20509;-93
2024/03/21 09:41:14;;;;;;;5.93;0.80;;;;;;;8.83;100.00;100967.25;4796858;29;20069;-93
2024/03/21 09:43:40;;;;;;;8.25;0.95;;;;;;;8.85;100.00;100960.06;4797923;29;20054;-93
2024/03/21 09:46:09;;;;;;;4.18;0.95;;;;;;;8.89;100.00;100956.22;4810076;29;20034;-95
2024/03/21 09:48:47;;;;;;;6.38;1.17;;;;;;;8.96;100.00;100954.78;4827347;29;20132;-94
2024/03/21 09:51:19;;;;;;;6.43;1.10;;;;;;;8.93;100.00;100950.59;4828596;29;20050;-93
2024/03/21 09:53:49;;;;;;;3.33;0.80;;;;;;;8.94;100.00;100948.78;4828193;29;20053;-94
2024/03/21 09:56:18;;;;;;;8.52;0.93;;;;;;;8.98;100.00;100958.13;4798811;29;20038;-93
2024/03/21 09:58:47;;;;;;;5.72;1.25;;;;;;;9.03;100.00;100963.88;4810280;29;20041;-92
2024/03/21 10:01:25;;;;;;;4.45;0.73;;;;;;;9.11;100.00;100965.09;4813977;29;20042;-91
2024/03/21 10:03:58;;;;;;;5.63;0.90;;;;;;;9.15;100.00;100963.88;4805114;29;20053;-93
2024/03/21 10:06:30;;;;;;;5.00;1.55;;;;;;;9.17;100.00;100961.97;4817049;29;20030;-93
2024/03/21 10:08:59;;;;;;;5.80;1.00;;;;;;;9.25;100.00;100961.34;4813513;29;20057;-93
2024/03/21 10:11:24;;;;;;;3.22;1.05;;;;;;;9.28;100.00;100966.38;4796229;29;20045;-93
2024/03/21 10:14:00;;;;;;;7.10;1.25;;;;;;;9.33;100.00;100958.94;4821705;29;20037;-94
2024/03/21 10:16:29;;;;;;;4.78;1.35;;;;;;;9.36;100.00;100968.41;4818133;29;20034;-93
2024/03/21 10:18:55;;;;;;;8.18;1.10;;;;;;;9.42;100.00;100966.13;4826304;29;20034;-92
2024/03/21 10:21:24;;;;;;;8.80;1.42;;;;;;;9.49;100.00;100976.16;4804067;29;20042;-93
2024/03/21 10:24:03;;;;;;;8.07;1.10;;;;;;;9.59;100.00;100971.00;4812603;29;20045;-94
2024/03/21 10:26:30;;;;;;;8.98;1.70;;;;;;;9.64;100.00;100963.50;4803369;29;20132;-93
2024/03/21 10:28:56;;;;;;;4.97;1.20;;;;;;;9.71;100.00;100962.06;4821738;29;20105;-93
2024/03/21 10:31:25;;;;;;;5.53;1.33;;;;;;;9.83;100.00;100960.22;4818915;29;20045;-90
2024/03/21 10:34:06;;;;;;;9.60;1.42;;;;;;;9.93;100.00;100934.72;4828564;29;20033;-94
2024/03/21 10:36:36;;;;;;;10.63;1.10;;;;;;;10.05;100.00;100940.78;4814175;29;20053;-92
2024/03/21 10:39:03;;;;;;;10.73;1.85;;;;;;;10.17;100.00;100938.91;4792564;29;20144;-92
2024/03/21 10:41:43;;;;;;;8.98;2.47;;;;;;;10.41;100.00;100939.59;4815834;29;20486;-93
2024/03/21 10:44:14;;;;;;;5.22;1.40;;;;;;;10.60;100.00;100938.91;4802335;29;20042;-92
2024/03/21 10:46:40;;;;;;;8.95;2.13;;;;;;;10.67;100.00;100924.16;4835378;29;20073;-95
2024/03/21 10:49:06;;;;;;;9.30;1.30;;;;;;;10.92;100.00;100942.34;4854643;29;20093;-93
2024/03/21 10:51:52;;;;;;;6.93;1.30;;;;;;;11.16;100.00;100926.13;4817575;29;20038;-91
2024/03/21 10:54:19;;;;;;;3.05;0.88;;;;;;;11.26;100.00;100934.06;4811340;29;20062;-92
2024/03/21 10:57:00;;;;;;;8.48;1.60;;;;;;;11.34;100.00;100928.09;4802040;29;20050;-94
2024/03/21 10:59:35;;;;;;;11.18;1.67;;;;;;;11.40;100.00;100937.31;4838014;29;20550;-92
2024/03/21 11:02:14;;;;;;;5.43;1.20;;;;;;;11.38;100.00;100934.81;4816902;29;20046;-91
2024/03/21 11:04:46;;;;;;;7.65;1.35;;;;;;;11.39;100.00;100923.22;4776090;29;20038;-93
2024/03/21 11:07:17;;;;;;;6.13;1.15;;;;;;;11.37;100.00;100917.22;4817422;29;20133;-93
2024/03/21 11:09:45;;;;;;;10.63;1.52;;;;;;;11.47;100.00;100919.03;4822505;29;20035;-93
2024/03/21 11:12:11;;;;;;;9.13;1.42;;;;;;;11.51;100.00;100918.66;4807422;29;20034;-92
2024/03/21 11:14:45;;;;;;;7.03;1.17;;;;;;;11.53;100.00;100915.88;4788562;29;20046;-93
2024/03/21 11:17:20;;;;;;;7.75;1.27;;;;;;;11.62;100.00;100893.00;4806186;29;20084;-89
2024/03/21 11:19:56;;;;;;;6.75;1.20;;;;;;;11.64;100.00;100894.53;4814240;29;20077;-92
2024/03/21 11:22:26;;;;;;;12.50;1.67;;;;;;;11.81;100.00;100892.16;4806928;29;20038;-94
2024/03/21 11:24:55;;;;;;;7.38;1.58;;;;;;;11.98;100.00;100900.34;4813262;29;20414;-91
2024/03/21 11:27:20;;;;;;;7.95;1.35;;;;;;;12.00;100.00;100887.78;4774400;29;20070;-89
2024/03/21 11:29:51;;;;;;;10.50;1.75;;;;;;;12.07;100.00;100882.78;4800954;29;20603;-90
2024/03/21 11:32:23;;;;;;;11.57;1.58;;;;;;;12.18;100.00;100900.34;4777164;29;20735;-92
2024/03/21 11:34:50;;;;;;;7.13;1.42;;;;;;;12.20;100.00;100885.97;4778122;29;20038;-91
2024/03/21 11:37:30;;;;;;;10.50;2.47;;;;;;;12.24;100.00;100899.75;4829437;29;20134;-91
2024/03/21 11:39:59;;;;;;;5.07;1.25;;;;;;;12.30;100.00;100893.88;4821941;29;20046;-91
2024/03/21 11:42:29;;;;;;;7.35;1.42;;;;;;;12.36;100.00;100903.09;4768243;29;20529;-94
2024/03/21 11:44:56;;;;;;;5.97;2.17;;;;;;;12.38;100.00;100903.75;4773775;29;21207;-93
2024/03/21 11:47:47;;;;;;;8.35;1.25;;;;;;;12.39;100.00;100902.81;4806270;29;20439;-91
2024/03/21 11:50:24;;;;;;;8.02;1.55;;;;;;;12.37;100.00;100897.66;4777319;29;20058;-91
2024/03/21 11:53:08;;;;;;;10.25;1.45;;;;;;;12.32;100.00;100897.22;4791242;29;20030;-93
2024/03/21 11:55:36;;;;;;;7.28;1.45;;;;;;;12.22;100.00;100901.72;4801545;29;20038;-92
2024/03/21 11:58:02;;;;;;;8.73;1.77;;;;;;;12.25;100.00;100904.06;4825006;29;20092;-94
2024/03/21 12:00:29;;;;;;;7.68;1.48;;;;;;;12.26;100.00;100903.94;4813647;29;20046;-92
2024/03/21 12:02:55;;;;;;;8.57;1.23;;;;;;;12.28;100.00;100895.84;4795009;29;20048;-92
2024/03/21 12:05:33;;;;;;;13.35;1.75;;;;;;;12.26;100.00;100892.50;4796749;29;20133;-93
2024/03/21 12:07:58;;;;;;;11.90;2.35;;;;;;;12.27;100.00;100888.88;4790621;29;20041;-87
2024/03/21 12:10:24;;;;;;;7.35;1.52;;;;;;;12.31;100.00;100892.91;4821553;29;20049;-89
2024/03/21 12:12:57;;;;;;;9.43;1.70;;;;;;;12.34;100.00;100895.25;4814983;29;20044;-93
2024/03/21 12:15:26;;;;;;;9.73;1.92;;;;;;;12.28;100.00;100899.34;4809493;29;20073;-93
2024/03/21 12:17:56;;;;;;;8.57;2.20;;;;;;;12.31;100.00;100900.84;4837385;29;20076;-93
2024/03/21 12:20:33;;;;;;;9.82;1.85;;;;;;;12.24;100.00;100908.56;4822712;29;20095;-91
2024/03/21 12:22:59;;;;;;;9.60;1.55;;;;;;;12.23;100.00;100920.13;4798408;29;20061;-91
2024/03/21 12:28:54;;;;;;;9.60;2.55;;;;;;;12.13;100.00;100917.50;4832745;29;20037;-90
2024/03/21 12:31:20;;;;;;;8.15;1.52;;;;;;;12.15;100.00;100922.66;4817981;29;20038;-90
2024/03/21 12:33:52;;;;;;;7.63;1.75;;;;;;;12.17;100.00;100917.22;4806636;29;20034;-93
2024/03/21 12:36:25;;;;;;;;;;;;;;;12.04;100.00;100913.00;4817016;29;20061;-93
2024/03/21 12:38:51;;;;;;;10.07;2.47;;;;;;;12.06;100.00;100913.72;4824254;29;19921;-93
2024/03/21 12:41:20;;;;;;;11.40;2.22;;;;;;;12.09;100.00;100913.47;4801563;29;20050;-90
2024/03/21 12:43:49;;;;;;;11.27;1.80;;;;;;;12.07;100.00;100911.91;4809680;29;20482;-92
2024/03/21 12:46:17;;;;;;;10.65;2.53;;;;;;;12.15;100.00;100910.25;4824994;29;20137;-94
2024/03/21 12:48:47;;;;;;;10.18;1.80;;;;;;;12.12;100.00;100909.72;4847528;29;20045;-91
2024/03/21 12:51:24;;;;;;;8.10;1.80;;;;;;;12.15;100.00;100917.38;4802667;29;20510;-90
2024/03/21 12:53:50;;;;;;;9.25;2.40;;;;;;;12.14;100.00;100913.03;4842235;29;20045;-94
2024/03/21 12:56:17;;;;;;;12.13;2.10;;;;;;;12.12;100.00;100905.22;4809192;29;20046;-91
2024/03/21 12:58:44;;;;;;;11.15;2.35;;;;;;;12.13;100.00;100900.78;4804773;29;20131;-92
2024/03/21 13:01:12;;;;;;;7.10;2.03;;;;;;;12.16;100.00;100892.53;4794960;29;20030;-92
2024/03/21 13:03:40;;;;;;;7.40;1.75;;;;;;;12.21;100.00;100897.41;4795178;29;20097;-92
2024/03/21 13:06:09;;;;;;;7.85;2.25;;;;;;;12.23;100.00;100895.44;4805781;29;20141;-92
2024/03/21 13:08:48;;;;;;;14.93;2.42;;;;;;;12.26;100.00;100895.16;4813048;29;20037;-92
2024/03/21 13:11:14;;;;;;;9.80;2.03;;;;;;;12.24;100.00;100892.66;4824477;29;20473;-92
2024/03/21 13:13:41;;;;;;;8.20;1.75;;;;;;;12.23;100.00;100893.63;4826986;29;20041;-91
2024/03/21 13:16:11;;;;;;;8.57;2.88;;;;;;;12.22;100.00;100883.16;4812530;29;20037;-92